createdAt,value
2022-12-24T00:01:36.308Z,15.18
2022-12-24T00:04:05.079Z,16.65
2022-12-24T00:06:33.300Z,15.88
2022-12-24T00:09:01.848Z,15.90
2022-12-24T00:11:30.107Z,15.57
2022-12-24T00:13:58.607Z,16.13
2022-12-24T00:16:28.262Z,15.93
2022-12-24T00:18:56.753Z,15.85
2022-12-24T00:21:25.117Z,17.00
2022-12-24T00:23:53.717Z,17.08
2022-12-24T00:26:21.864Z,17.23
2022-12-24T00:28:50.409Z,15.07
2022-12-24T00:31:20.223Z,16.48
2022-12-24T00:33:50.469Z,15.10
2022-12-24T00:36:19.817Z,16.13
2022-12-24T00:38:48.958Z,17.92
2022-12-24T00:41:29.047Z,17.88
2022-12-24T00:43:59.986Z,18.25
2022-12-24T00:46:29.645Z,17.10
2022-12-24T00:48:59.859Z,19.25
2022-12-24T00:51:28.056Z,18.42
2022-12-24T00:53:56.924Z,19.02
2022-12-24T00:56:25.281Z,19.08
2022-12-24T00:58:54.051Z,20.10
2022-12-24T01:01:22.680Z,17.23
2022-12-24T01:03:51.814Z,16.58
2022-12-24T01:06:23.579Z,16.77
2022-12-24T01:08:52.601Z,16.08
2022-12-24T01:11:20.699Z,16.02
2022-12-24T01:13:49.354Z,18.00
2022-12-24T01:16:19.966Z,18.33
2022-12-24T01:18:48.691Z,16.13
2022-12-24T01:21:17.083Z,18.40
2022-12-24T01:23:59.772Z,17.65
2022-12-24T01:26:29.019Z,16.60
2022-12-24T01:28:57.943Z,15.82
2022-12-24T01:31:26.500Z,17.40
2022-12-24T01:33:54.976Z,19.88
2022-12-24T01:36:23.198Z,17.05
2022-12-24T01:38:53.189Z,19.70
2022-12-24T01:41:41.957Z,20.15
2022-12-24T01:44:22.354Z,20.33
2022-12-24T01:46:53.922Z,16.83
2022-12-24T01:49:22.480Z,15.10
2022-12-24T01:51:55.992Z,13.90
2022-12-24T01:54:31.295Z,14.48
2022-12-24T01:57:05.734Z,16.25
2022-12-24T01:59:35.793Z,16.45
2022-12-24T02:02:04.614Z,15.98
2022-12-24T02:04:38.338Z,15.00
2022-12-24T02:07:06.479Z,14.90
2022-12-24T02:09:37.954Z,14.93
2022-12-24T02:12:07.900Z,15.82
2022-12-24T02:14:37.308Z,15.18
2022-12-24T02:17:18.483Z,16.42
2022-12-24T02:20:25.560Z,15.48
2022-12-24T02:23:09.122Z,15.40
2022-12-24T02:25:56.079Z,15.13
2022-12-24T02:28:49.000Z,14.75
2022-12-24T02:31:24.825Z,15.65
2022-12-24T02:34:00.889Z,16.70
2022-12-24T02:36:36.430Z,14.65
2022-12-24T02:39:07.399Z,12.05
2022-12-24T02:41:54.129Z,13.95
2022-12-24T02:44:25.847Z,10.95
2022-12-24T02:46:58.150Z,13.13
2022-12-24T02:49:26.677Z,12.13
2022-12-24T02:51:55.266Z,11.25
2022-12-24T02:54:23.875Z,11.13
2022-12-24T02:57:06.021Z,12.38
2022-12-24T02:59:48.671Z,9.85
2022-12-24T03:02:27.712Z,10.43
2022-12-24T03:05:05.753Z,9.95
2022-12-24T03:07:39.922Z,10.90
2022-12-24T03:10:22.816Z,11.93
2022-12-24T03:12:53.290Z,9.98
2022-12-24T03:15:24.265Z,9.13
2022-12-24T03:17:57.227Z,9.30
2022-12-24T03:20:32.354Z,7.90
2022-12-24T03:23:00.788Z,8.07
2022-12-24T03:25:34.827Z,11.63
2022-12-24T03:28:06.106Z,15.00
2022-12-24T03:34:05.382Z,14.25
2022-12-24T03:36:33.471Z,15.40
2022-12-24T03:39:01.913Z,13.18
2022-12-24T03:41:30.119Z,12.60
2022-12-24T03:43:58.594Z,13.33
2022-12-24T03:46:26.789Z,11.50
2022-12-24T03:48:55.660Z,12.45
2022-12-24T03:51:26.833Z,11.60
2022-12-24T03:53:56.149Z,10.57
2022-12-24T03:56:25.501Z,10.77
2022-12-24T03:58:54.449Z,10.30
2022-12-24T04:01:22.619Z,10.55
2022-12-24T04:03:51.207Z,11.32
2022-12-24T04:06:19.423Z,10.07
2022-12-24T04:08:49.280Z,10.80
2022-12-24T04:11:18.124Z,12.80
2022-12-24T04:13:46.599Z,10.68
2022-12-24T04:16:16.884Z,10.73
2022-12-24T04:18:45.441Z,10.52
2022-12-24T04:21:13.950Z,9.73
2022-12-24T04:23:43.306Z,10.50
2022-12-24T04:26:14.392Z,7.95
2022-12-24T04:28:44.260Z,8.05
2022-12-24T04:31:18.934Z,8.70
2022-12-24T04:33:47.844Z,9.32
2022-12-24T04:36:18.045Z,9.63
2022-12-24T04:38:47.557Z,9.93
2022-12-24T04:41:23.649Z,8.50
2022-12-24T04:43:53.484Z,8.95
2022-12-24T04:46:24.562Z,8.80
2022-12-24T04:48:54.648Z,9.77
2022-12-24T04:51:23.428Z,9.75
2022-12-24T04:53:52.389Z,9.98
2022-12-24T04:56:24.808Z,10.70
2022-12-24T04:58:54.010Z,9.35
2022-12-24T05:01:23.525Z,8.88
2022-12-24T05:03:54.895Z,10.15
2022-12-24T05:06:24.191Z,9.10
2022-12-24T05:08:55.356Z,9.07
2022-12-24T05:11:25.574Z,9.98
2022-12-24T05:13:54.512Z,9.95
2022-12-24T05:16:25.028Z,10.40
2022-12-24T05:18:54.209Z,8.10
2022-12-24T05:21:24.802Z,8.70
2022-12-24T05:24:11.112Z,8.48
2022-12-24T05:26:43.214Z,8.55
2022-12-24T05:29:13.338Z,8.40
2022-12-24T05:31:42.865Z,8.68
2022-12-24T05:34:11.551Z,8.73
2022-12-24T05:36:39.948Z,7.90
2022-12-24T05:39:15.201Z,9.20
2022-12-24T05:41:45.931Z,8.77
2022-12-24T05:44:17.469Z,8.00
2022-12-24T05:46:46.034Z,8.18
2022-12-24T05:49:14.774Z,7.15
2022-12-24T05:51:43.152Z,6.47
2022-12-24T05:54:11.609Z,7.75
2022-12-24T05:56:44.138Z,8.20
2022-12-24T05:59:14.005Z,6.32
2022-12-24T06:01:48.414Z,6.45
2022-12-24T06:04:18.551Z,6.50
2022-12-24T06:06:48.732Z,6.63
2022-12-24T06:09:17.301Z,7.28
2022-12-24T06:11:45.382Z,8.20
2022-12-24T06:14:15.419Z,8.68
2022-12-24T06:16:43.516Z,8.32
2022-12-24T06:19:12.198Z,7.22
2022-12-24T06:21:40.356Z,7.60
2022-12-24T06:24:09.491Z,8.00
2022-12-24T06:26:37.787Z,7.95
2022-12-24T06:29:07.300Z,5.63
2022-12-24T06:31:36.874Z,6.35
2022-12-24T06:34:05.351Z,6.15
2022-12-24T06:36:33.822Z,6.70
2022-12-24T06:39:02.184Z,7.13
2022-12-24T06:41:30.340Z,6.95
2022-12-24T06:43:58.783Z,7.67
2022-12-24T06:46:27.063Z,5.95
2022-12-24T06:48:56.900Z,6.63
2022-12-24T06:51:27.349Z,6.53
2022-12-24T06:53:55.694Z,7.55
2022-12-24T06:56:23.841Z,6.45
2022-12-24T06:58:52.409Z,8.97
2022-12-24T07:01:24.518Z,11.27
2022-12-24T07:03:53.112Z,10.13
2022-12-24T07:06:26.389Z,8.25
2022-12-24T07:08:56.617Z,9.13
2022-12-24T07:11:26.631Z,8.07
2022-12-24T07:13:55.118Z,9.07
2022-12-24T07:16:23.468Z,9.88
2022-12-24T07:18:51.942Z,9.10
2022-12-24T07:21:20.078Z,10.27
2022-12-24T07:23:50.159Z,9.10
2022-12-24T07:26:20.947Z,9.43
2022-12-24T07:28:49.379Z,9.27
2022-12-24T07:31:17.732Z,8.90
2022-12-24T07:33:46.636Z,8.50
2022-12-24T07:36:19.756Z,8.52
2022-12-24T07:38:49.824Z,8.15
2022-12-24T07:41:18.191Z,9.00
2022-12-24T07:43:46.686Z,7.63
2022-12-24T07:46:15.259Z,7.95
2022-12-24T07:48:43.738Z,9.50
2022-12-24T07:51:11.837Z,9.57
2022-12-24T07:53:40.237Z,8.57
2022-12-24T07:56:12.952Z,9.60
2022-12-24T07:58:41.782Z,9.88
2022-12-24T08:01:10.849Z,7.57
2022-12-24T08:06:08.247Z,7.50
2022-12-24T08:08:37.324Z,7.72
2022-12-24T08:11:09.062Z,7.90
2022-12-24T08:13:38.891Z,7.88
2022-12-24T08:18:35.388Z,7.67
2022-12-24T08:21:03.599Z,8.38
2022-12-24T08:23:31.979Z,9.33
2022-12-24T08:26:00.052Z,9.38
2022-12-24T08:28:28.707Z,9.63
2022-12-24T08:30:58.206Z,9.20
2022-12-24T08:33:26.791Z,10.13
2022-12-24T08:35:56.854Z,10.40
2022-12-24T08:38:25.808Z,10.52
2022-12-24T08:40:55.317Z,10.25
2022-12-24T08:43:25.635Z,9.73
2022-12-24T08:45:53.890Z,10.10
2022-12-24T08:48:23.965Z,10.15
2022-12-24T08:50:52.022Z,9.60
2022-12-24T08:53:20.467Z,9.77
2022-12-24T08:55:55.787Z,10.38
2022-12-24T08:58:24.935Z,10.38
2022-12-24T09:00:53.105Z,10.60
2022-12-24T09:03:27.373Z,10.67
2022-12-24T09:05:57.465Z,10.77
2022-12-24T09:08:25.853Z,10.45
2022-12-24T09:10:54.609Z,11.32
2022-12-24T09:13:23.012Z,10.77
2022-12-24T09:15:55.823Z,11.45
2022-12-24T09:18:24.305Z,11.27
2022-12-24T09:20:57.279Z,12.65
2022-12-24T09:23:28.165Z,12.23
2022-12-24T09:25:56.461Z,11.93
2022-12-24T09:28:25.865Z,13.05
2022-12-24T09:30:58.830Z,11.98
2022-12-24T09:33:27.390Z,13.20
2022-12-24T09:35:55.705Z,13.55
2022-12-24T09:38:24.687Z,13.73
2022-12-24T09:40:57.341Z,14.55
2022-12-24T09:43:27.952Z,14.48
2022-12-24T09:46:07.876Z,14.35
2022-12-24T09:48:41.033Z,16.42
2022-12-24T09:51:11.912Z,16.15
2022-12-24T09:53:44.765Z,15.77
2022-12-24T09:56:20.962Z,17.38
2022-12-24T09:58:52.422Z,16.02
2022-12-24T10:01:21.343Z,16.17
2022-12-24T10:03:50.302Z,14.80
2022-12-24T10:06:28.732Z,14.10
2022-12-24T10:09:08.258Z,13.68
2022-12-24T10:11:48.757Z,11.55
2022-12-24T10:14:35.295Z,12.05
2022-12-24T10:17:22.025Z,12.20
2022-12-24T10:19:55.959Z,7.43
2022-12-24T10:22:32.525Z,6.13
2022-12-24T10:25:06.828Z,3.22
2022-12-24T10:27:40.635Z,3.28
2022-12-24T10:30:17.473Z,2.63
2022-12-24T10:32:48.817Z,2.08
2022-12-24T10:35:24.090Z,1.98
2022-12-24T10:37:53.910Z,1.52
2022-12-24T10:40:31.829Z,1.80
2022-12-24T10:43:01.534Z,2.05
2022-12-24T10:45:38.577Z,1.90
2022-12-24T10:48:13.010Z,2.25
2022-12-24T10:50:51.729Z,1.80
2022-12-24T10:53:24.705Z,1.67
2022-12-24T10:56:03.397Z,2.15
2022-12-24T10:58:33.603Z,2.33
2022-12-24T11:01:02.838Z,2.30
2022-12-24T11:03:33.615Z,2.00
2022-12-24T11:06:06.143Z,2.10
2022-12-24T11:08:35.396Z,2.40
2022-12-24T11:13:39.142Z,2.67
2022-12-24T11:16:16.506Z,3.10
2022-12-24T11:18:51.231Z,2.60
2022-12-24T11:21:23.288Z,2.22
2022-12-24T11:23:54.473Z,2.70
2022-12-24T11:26:24.952Z,2.85
2022-12-24T11:29:13.801Z,2.75
2022-12-24T11:31:42.736Z,2.38
2022-12-24T11:34:26.115Z,4.03
2022-12-24T11:36:55.918Z,3.70
2022-12-24T11:41:55.476Z,3.40
2022-12-24T11:44:28.602Z,3.88
2022-12-24T11:46:57.743Z,3.10
2022-12-24T11:49:28.580Z,3.75
2022-12-24T11:52:23.861Z,4.13
2022-12-24T11:55:19.015Z,3.70
2022-12-24T11:57:55.057Z,2.95
2022-12-24T12:00:25.582Z,3.53
2022-12-24T12:02:58.337Z,2.40
2022-12-24T12:05:30.884Z,2.03
2022-12-24T12:08:09.374Z,1.90
2022-12-24T12:10:41.151Z,2.53
2022-12-24T12:13:15.921Z,3.70
2022-12-24T12:15:52.092Z,3.05
2022-12-24T12:18:26.069Z,4.22
2022-12-24T12:20:59.793Z,4.68
2022-12-24T12:23:34.437Z,6.82
2022-12-24T12:26:08.826Z,5.25
2022-12-24T12:28:42.585Z,3.65
2022-12-24T12:31:16.990Z,4.20
2022-12-24T12:33:51.283Z,3.15
2022-12-24T12:36:23.371Z,3.60
2022-12-24T12:38:52.977Z,3.85
2022-12-24T12:41:33.708Z,5.78
2022-12-24T12:44:21.180Z,4.43
2022-12-24T12:47:14.541Z,4.40
2022-12-24T12:49:49.696Z,3.58
2022-12-24T12:52:42.703Z,3.78
2022-12-24T12:55:25.188Z,2.75
2022-12-24T12:57:59.622Z,3.05
2022-12-24T13:00:32.180Z,2.92
2022-12-24T13:03:40.742Z,2.90
2022-12-24T13:06:24.275Z,2.83
2022-12-24T13:09:32.088Z,3.40
2022-12-24T13:12:14.433Z,3.17
2022-12-24T13:14:58.815Z,3.47
2022-12-24T13:17:48.424Z,3.80
2022-12-24T13:20:25.571Z,3.20
2022-12-24T13:22:59.469Z,3.72
2022-12-24T13:25:33.950Z,9.02
2022-12-24T13:28:31.802Z,7.53
2022-12-24T13:31:38.727Z,7.13
2022-12-24T13:34:35.505Z,10.35
2022-12-24T13:37:21.113Z,6.82
2022-12-24T13:40:23.589Z,5.47
2022-12-24T13:43:11.693Z,5.60
2022-12-24T13:45:45.668Z,5.45
2022-12-24T13:48:34.096Z,6.53
2022-12-24T13:51:20.244Z,7.18
2022-12-24T13:53:50.589Z,6.15
2022-12-24T13:56:27.455Z,5.82
2022-12-24T13:59:12.556Z,6.05
2022-12-24T14:01:43.676Z,5.78
2022-12-24T14:04:25.303Z,5.40
2022-12-24T14:06:55.567Z,6.72
2022-12-24T14:09:26.582Z,5.80
2022-12-24T14:12:33.641Z,5.63
2022-12-24T14:15:47.324Z,7.20
2022-12-24T14:18:20.695Z,15.75
2022-12-24T14:20:50.467Z,11.07
2022-12-24T14:23:32.610Z,14.27
2022-12-24T14:26:03.868Z,13.77
2022-12-24T14:28:38.083Z,13.50
2022-12-24T14:31:07.498Z,13.18
2022-12-24T14:33:37.097Z,14.55
2022-12-24T14:36:05.715Z,14.93
2022-12-24T14:38:35.322Z,16.35
2022-12-24T14:41:16.407Z,21.95
2022-12-24T14:43:54.704Z,16.48
2022-12-24T14:46:29.511Z,17.10
2022-12-24T14:49:02.030Z,18.45
2022-12-24T14:51:39.709Z,24.35
2022-12-24T14:54:28.347Z,23.48
2022-12-24T14:57:16.117Z,20.67
2022-12-24T14:59:48.000Z,23.50
2022-12-24T15:02:43.304Z,19.80
2022-12-24T15:05:15.718Z,23.20
2022-12-24T15:07:50.693Z,23.63
2022-12-24T15:10:30.307Z,24.92
2022-12-24T15:15:33.237Z,29.90
2022-12-24T15:18:04.449Z,27.05
2022-12-24T15:20:32.966Z,26.92
2022-12-24T15:23:01.178Z,21.05
2022-12-24T15:25:32.137Z,17.37
2022-12-24T15:28:02.038Z,16.50
2022-12-24T15:30:31.657Z,17.08
2022-12-24T15:33:00.604Z,15.05
2022-12-24T15:35:47.035Z,14.15
2022-12-24T15:38:28.253Z,13.60
2022-12-24T15:40:57.688Z,13.25
2022-12-24T15:43:28.788Z,14.40
2022-12-24T15:45:57.478Z,15.50
2022-12-24T15:48:27.924Z,14.13
2022-12-24T15:51:00.191Z,15.90
2022-12-24T15:53:31.940Z,18.00
2022-12-24T15:56:06.878Z,14.95
2022-12-24T15:58:38.361Z,17.70
2022-12-24T16:01:28.981Z,15.68
2022-12-24T16:04:00.194Z,18.88
2022-12-24T16:06:29.492Z,17.60
2022-12-24T16:08:58.780Z,20.33
2022-12-24T16:11:30.077Z,19.92
2022-12-24T16:14:12.300Z,19.70
2022-12-24T16:16:42.726Z,28.85
2022-12-24T16:19:19.521Z,21.33
2022-12-24T16:21:51.560Z,23.23
2022-12-24T16:24:24.220Z,22.08
2022-12-24T16:26:52.837Z,20.98
2022-12-24T16:29:23.560Z,18.90
2022-12-24T16:31:53.639Z,17.75
2022-12-24T16:34:26.509Z,15.75
2022-12-24T16:36:55.273Z,19.33
2022-12-24T16:39:25.432Z,21.38
2022-12-24T16:42:12.451Z,22.33
2022-12-24T16:44:43.109Z,19.67
2022-12-24T16:47:14.605Z,20.00
2022-12-24T16:49:43.377Z,25.80
2022-12-24T16:52:21.470Z,25.75
2022-12-24T16:54:49.944Z,23.10
2022-12-24T16:57:18.546Z,21.40
2022-12-24T16:59:48.432Z,17.77
2022-12-24T17:02:18.787Z,26.15
2022-12-24T17:04:48.239Z,25.55
2022-12-24T17:07:20.891Z,28.83
2022-12-24T17:09:49.914Z,23.80
2022-12-24T17:12:18.058Z,25.33
2022-12-24T17:14:48.480Z,22.53
2022-12-24T17:17:24.645Z,27.55
2022-12-24T17:19:53.438Z,24.25
2022-12-24T17:22:21.811Z,25.60
2022-12-24T17:24:50.214Z,21.85
2022-12-24T17:27:18.346Z,23.58
2022-12-24T17:29:48.246Z,22.73
2022-12-24T17:32:16.834Z,25.33
2022-12-24T17:34:45.283Z,24.60
2022-12-24T17:37:13.759Z,24.27
2022-12-24T17:39:42.214Z,19.35
2022-12-24T17:42:13.689Z,20.35
2022-12-24T17:44:42.051Z,25.85
2022-12-24T17:47:11.582Z,26.52
2022-12-24T17:49:40.036Z,25.98
2022-12-24T17:52:08.141Z,18.83
2022-12-24T17:54:36.585Z,18.33
2022-12-24T17:57:04.876Z,17.05
2022-12-24T17:59:33.535Z,21.35
2022-12-24T18:02:01.768Z,22.95
2022-12-24T18:04:31.673Z,26.10
2022-12-24T18:07:02.833Z,27.88
2022-12-24T18:09:32.154Z,25.38
2022-12-24T18:12:01.030Z,24.88
2022-12-24T18:14:29.740Z,24.13
2022-12-24T18:16:58.316Z,24.15
2022-12-24T18:19:26.835Z,23.92
2022-12-24T18:21:56.395Z,22.35
2022-12-24T18:24:24.972Z,22.35
2022-12-24T18:26:53.253Z,19.42
2022-12-24T18:29:21.976Z,20.67
2022-12-24T18:31:50.325Z,19.05
2022-12-24T18:34:19.560Z,20.95
2022-12-24T18:36:54.582Z,18.67
2022-12-24T18:39:24.987Z,19.65
2022-12-24T18:44:25.318Z,17.63
2022-12-24T18:46:56.612Z,17.83
2022-12-24T18:49:25.289Z,36.92
2022-12-24T18:51:53.423Z,24.92
2022-12-24T18:54:22.064Z,21.80
2022-12-24T18:56:53.181Z,18.70
2022-12-24T18:59:21.640Z,17.00
2022-12-24T19:01:50.075Z,40.25
2022-12-24T19:04:18.598Z,19.80
2022-12-24T19:06:52.786Z,19.33
2022-12-24T19:09:22.387Z,17.65
2022-12-24T19:11:52.107Z,18.58
2022-12-24T19:14:21.281Z,14.65
2022-12-24T19:16:49.995Z,15.15
2022-12-24T19:19:23.976Z,12.57
2022-12-24T19:21:52.249Z,15.07
2022-12-24T19:24:20.645Z,16.02
2022-12-24T19:26:49.168Z,19.15
2022-12-24T19:29:19.684Z,19.92
2022-12-24T19:31:47.949Z,22.63
2022-12-24T19:34:16.809Z,27.40
2022-12-24T19:36:44.885Z,26.00
2022-12-24T19:39:13.258Z,22.90
2022-12-24T19:41:41.449Z,21.80
2022-12-24T19:44:12.280Z,20.50
2022-12-24T19:46:41.805Z,20.08
2022-12-24T19:49:13.343Z,17.98
2022-12-24T19:51:41.543Z,16.70
2022-12-24T19:54:18.669Z,15.30
2022-12-24T19:56:47.985Z,15.38
2022-12-24T19:59:16.571Z,11.75
2022-12-24T20:01:47.211Z,10.18
2022-12-24T20:04:18.519Z,10.60
2022-12-24T20:06:46.663Z,12.57
2022-12-24T20:09:15.462Z,10.40
2022-12-24T20:11:43.616Z,8.50
2022-12-24T20:14:12.691Z,7.63
2022-12-24T20:16:40.968Z,10.15
2022-12-24T20:19:15.147Z,9.05
2022-12-24T20:21:43.276Z,9.13
2022-12-24T20:24:11.885Z,7.47
2022-12-24T20:26:44.349Z,7.68
2022-12-24T20:29:13.168Z,8.25
2022-12-24T20:31:42.352Z,7.70
2022-12-24T20:36:41.350Z,9.35
2022-12-24T20:39:13.345Z,7.43
2022-12-24T20:41:41.728Z,8.65
2022-12-24T20:44:12.251Z,9.27
2022-12-24T20:46:40.480Z,8.63
2022-12-24T20:49:09.910Z,6.80
2022-12-24T20:51:42.747Z,8.02
2022-12-24T20:54:11.875Z,8.88
2022-12-24T20:56:40.889Z,10.57
2022-12-24T21:01:39.023Z,7.63
2022-12-24T21:04:10.337Z,7.60
2022-12-24T21:06:38.493Z,7.45
2022-12-24T21:09:08.587Z,8.17
2022-12-24T21:11:54.640Z,7.90
2022-12-24T21:14:25.959Z,10.00
2022-12-24T21:16:55.756Z,11.88
2022-12-24T21:19:25.869Z,10.25
2022-12-24T21:21:55.173Z,10.70
2022-12-24T21:24:25.876Z,11.50
2022-12-24T21:26:54.343Z,10.45
2022-12-24T21:29:22.765Z,10.18
2022-12-24T21:31:50.916Z,11.32
2022-12-24T21:34:19.302Z,25.98
2022-12-24T21:36:47.506Z,17.75
2022-12-24T21:39:16.422Z,13.32
2022-12-24T21:41:45.946Z,12.73
2022-12-24T21:44:14.497Z,11.68
2022-12-24T21:46:42.751Z,19.13
2022-12-24T21:49:29.224Z,11.10
2022-12-24T21:51:57.846Z,11.13
2022-12-24T21:54:30.420Z,10.63
2022-12-24T21:57:19.786Z,10.63
2022-12-24T21:59:51.110Z,14.80
2022-12-24T22:02:20.863Z,21.67
2022-12-24T22:04:49.690Z,15.15
2022-12-24T22:07:39.326Z,12.15
2022-12-24T22:10:28.889Z,14.18
2022-12-24T22:13:00.543Z,31.10
2022-12-24T22:15:28.980Z,16.08
2022-12-24T22:17:57.197Z,25.05
2022-12-24T22:20:25.907Z,17.83
2022-12-24T22:22:54.126Z,15.30
2022-12-24T22:25:22.497Z,11.60
2022-12-24T22:27:50.995Z,13.45
2022-12-24T22:30:21.629Z,12.65
2022-12-24T22:32:49.808Z,11.20
2022-12-24T22:35:18.416Z,12.07
2022-12-24T22:37:46.539Z,16.92
2022-12-24T22:40:16.354Z,12.70
2022-12-24T22:42:44.535Z,16.88
2022-12-24T22:45:19.983Z,17.17
2022-12-24T22:47:51.612Z,19.02
2022-12-24T22:50:20.022Z,14.07
2022-12-24T22:52:48.244Z,17.02
2022-12-24T22:55:17.149Z,21.35
2022-12-24T22:57:45.492Z,24.58
2022-12-24T23:00:17.864Z,20.98
2022-12-24T23:02:46.056Z,22.20
2022-12-24T23:05:16.404Z,17.13
2022-12-24T23:07:44.559Z,16.90
2022-12-24T23:10:13.175Z,17.43
2022-12-24T23:12:58.779Z,27.65
2022-12-24T23:15:27.199Z,24.80
2022-12-24T23:17:55.842Z,25.33
2022-12-24T23:20:28.841Z,18.48
2022-12-24T23:22:57.033Z,21.42
2022-12-24T23:25:26.318Z,17.10
2022-12-24T23:27:57.534Z,14.88
2022-12-24T23:30:26.081Z,17.65
2022-12-24T23:32:54.553Z,15.45
2022-12-24T23:35:23.359Z,16.98
2022-12-24T23:37:53.235Z,16.93
2022-12-24T23:40:21.871Z,14.73
2022-12-24T23:42:50.040Z,14.05
2022-12-24T23:45:20.067Z,15.83
2022-12-24T23:47:48.184Z,13.30
2022-12-24T23:50:16.907Z,14.23
2022-12-24T23:52:45.016Z,15.98
2022-12-24T23:55:15.009Z,12.73
2022-12-24T23:57:43.099Z,10.52
